sensor_id;sensor_type;location;lat;lon;timestamp;temperature;humidity
64718;DHT22;51148;46.070;14.492;2022-07-17T00:02:11;24.80;59.40
64718;DHT22;51148;46.070;14.492;2022-07-17T00:04:37;24.80;59.40
64718;DHT22;51148;46.070;14.492;2022-07-17T00:07:03;24.80;60.00
64718;DHT22;51148;46.070;14.492;2022-07-17T00:09:28;24.80;59.40
64718;DHT22;51148;46.070;14.492;2022-07-17T00:11:54;24.80;59.20
64718;DHT22;51148;46.070;14.492;2022-07-17T00:14:19;24.80;59.10
64718;DHT22;51148;46.070;14.492;2022-07-17T00:16:45;24.80;59.20
64718;DHT22;51148;46.070;14.492;2022-07-17T00:19:10;24.80;59.30
64718;DHT22;51148;46.070;14.492;2022-07-17T00:21:36;24.80;59.20
64718;DHT22;51148;46.070;14.492;2022-07-17T00:24:01;24.80;59.20
64718;DHT22;51148;46.070;14.492;2022-07-17T00:26:27;24.80;59.10
64718;DHT22;51148;46.070;14.492;2022-07-17T00:28:52;24.90;59.20
64718;DHT22;51148;46.070;14.492;2022-07-17T00:31:18;24.90;59.00
64718;DHT22;51148;46.070;14.492;2022-07-17T00:33:43;24.90;59.00
64718;DHT22;51148;46.070;14.492;2022-07-17T00:36:09;24.90;58.90
64718;DHT22;51148;46.070;14.492;2022-07-17T00:38:34;24.90;58.90
64718;DHT22;51148;46.070;14.492;2022-07-17T00:41:00;24.90;58.80
64718;DHT22;51148;46.070;14.492;2022-07-17T00:43:26;24.90;58.80
64718;DHT22;51148;46.070;14.492;2022-07-17T00:45:58;24.90;58.70
64718;DHT22;51148;46.070;14.492;2022-07-17T00:48:24;24.90;58.70
64718;DHT22;51148;46.070;14.492;2022-07-17T00:50:50;24.90;58.70
64718;DHT22;51148;46.070;14.492;2022-07-17T00:53:15;25.00;58.90
64718;DHT22;51148;46.070;14.492;2022-07-17T00:55:41;24.90;58.80
64718;DHT22;51148;46.070;14.492;2022-07-17T00:58:06;24.90;58.80
64718;DHT22;51148;46.070;14.492;2022-07-17T01:00:33;25.00;58.80
64718;DHT22;51148;46.070;14.492;2022-07-17T01:02:58;25.00;58.80
64718;DHT22;51148;46.070;14.492;2022-07-17T01:05:24;25.00;58.80
64718;DHT22;51148;46.070;14.492;2022-07-17T01:07:50;25.00;58.90
64718;DHT22;51148;46.070;14.492;2022-07-17T01:10:16;24.90;58.80
64718;DHT22;51148;46.070;14.492;2022-07-17T01:12:42;24.90;58.70
64718;DHT22;51148;46.070;14.492;2022-07-17T01:15:08;24.90;58.70
64718;DHT22;51148;46.070;14.492;2022-07-17T01:17:34;24.90;58.70
64718;DHT22;51148;46.070;14.492;2022-07-17T01:20:00;24.90;58.50
64718;DHT22;51148;46.070;14.492;2022-07-17T01:22:26;24.80;58.40
64718;DHT22;51148;46.070;14.492;2022-07-17T01:24:51;24.80;58.40
64718;DHT22;51148;46.070;14.492;2022-07-17T01:27:17;24.80;58.40
64718;DHT22;51148;46.070;14.492;2022-07-17T01:29:42;24.80;58.40
64718;DHT22;51148;46.070;14.492;2022-07-17T01:32:08;24.90;58.40
64718;DHT22;51148;46.070;14.492;2022-07-17T01:34:33;24.90;58.40
64718;DHT22;51148;46.070;14.492;2022-07-17T01:36:59;24.90;58.30
64718;DHT22;51148;46.070;14.492;2022-07-17T01:39:24;24.90;58.30
64718;DHT22;51148;46.070;14.492;2022-07-17T01:42:09;24.90;58.30
64718;DHT22;51148;46.070;14.492;2022-07-17T01:44:34;24.90;58.30
64718;DHT22;51148;46.070;14.492;2022-07-17T01:47:00;24.90;58.30
64718;DHT22;51148;46.070;14.492;2022-07-17T01:49:25;24.90;58.40
64718;DHT22;51148;46.070;14.492;2022-07-17T01:51:51;24.80;58.40
64718;DHT22;51148;46.070;14.492;2022-07-17T01:54:16;24.80;58.40
64718;DHT22;51148;46.070;14.492;2022-07-17T01:56:42;24.80;58.30
64718;DHT22;51148;46.070;14.492;2022-07-17T01:59:08;24.90;58.40
64718;DHT22;51148;46.070;14.492;2022-07-17T02:01:33;24.90;58.40
64718;DHT22;51148;46.070;14.492;2022-07-17T02:03:59;24.90;58.30
64718;DHT22;51148;46.070;14.492;2022-07-17T02:06:24;24.90;58.30
64718;DHT22;51148;46.070;14.492;2022-07-17T02:08:50;24.90;58.40
64718;DHT22;51148;46.070;14.492;2022-07-17T02:11:19;24.90;58.50
64718;DHT22;51148;46.070;14.492;2022-07-17T02:13:44;24.90;58.40
64718;DHT22;51148;46.070;14.492;2022-07-17T02:16:10;24.90;58.40
64718;DHT22;51148;46.070;14.492;2022-07-17T02:18:35;24.90;58.70
64718;DHT22;51148;46.070;14.492;2022-07-17T02:21:01;24.90;58.50
64718;DHT22;51148;46.070;14.492;2022-07-17T02:23:27;24.90;58.50
64718;DHT22;51148;46.070;14.492;2022-07-17T02:25:53;24.90;58.90
64718;DHT22;51148;46.070;14.492;2022-07-17T02:28:19;24.90;58.50
64718;DHT22;51148;46.070;14.492;2022-07-17T02:30:45;24.90;58.50
64718;DHT22;51148;46.070;14.492;2022-07-17T02:33:12;24.90;58.40
64718;DHT22;51148;46.070;14.492;2022-07-17T02:35:37;24.90;58.50
64718;DHT22;51148;46.070;14.492;2022-07-17T02:38:03;24.90;58.50
64718;DHT22;51148;46.070;14.492;2022-07-17T02:40:28;24.90;58.50
64718;DHT22;51148;46.070;14.492;2022-07-17T02:42:54;24.80;58.60
64718;DHT22;51148;46.070;14.492;2022-07-17T02:45:20;24.80;58.70
64718;DHT22;51148;46.070;14.492;2022-07-17T02:47:50;24.80;58.70
64718;DHT22;51148;46.070;14.492;2022-07-17T02:50:15;24.80;58.80
64718;DHT22;51148;46.070;14.492;2022-07-17T02:52:41;24.80;58.80
64718;DHT22;51148;46.070;14.492;2022-07-17T02:55:09;24.80;58.80
64718;DHT22;51148;46.070;14.492;2022-07-17T02:57:35;24.80;58.80
64718;DHT22;51148;46.070;14.492;2022-07-17T03:00:00;24.80;58.80
64718;DHT22;51148;46.070;14.492;2022-07-17T03:02:26;24.80;58.90
64718;DHT22;51148;46.070;14.492;2022-07-17T03:04:51;24.80;58.90
64718;DHT22;51148;46.070;14.492;2022-07-17T03:07:17;24.80;58.80
64718;DHT22;51148;46.070;14.492;2022-07-17T03:09:42;24.80;59.00
64718;DHT22;51148;46.070;14.492;2022-07-17T03:12:08;24.80;59.00
64718;DHT22;51148;46.070;14.492;2022-07-17T03:14:33;24.80;59.00
64718;DHT22;51148;46.070;14.492;2022-07-17T03:16:59;24.80;58.90
64718;DHT22;51148;46.070;14.492;2022-07-17T03:19:24;24.80;58.90
64718;DHT22;51148;46.070;14.492;2022-07-17T03:21:50;24.90;58.90
64718;DHT22;51148;46.070;14.492;2022-07-17T03:24:15;24.90;58.90
64718;DHT22;51148;46.070;14.492;2022-07-17T03:26:41;24.90;58.80
64718;DHT22;51148;46.070;14.492;2022-07-17T03:29:06;24.90;58.80
64718;DHT22;51148;46.070;14.492;2022-07-17T03:31:32;24.90;58.80
64718;DHT22;51148;46.070;14.492;2022-07-17T03:33:57;24.90;58.70
64718;DHT22;51148;46.070;14.492;2022-07-17T03:36:22;24.90;58.70
64718;DHT22;51148;46.070;14.492;2022-07-17T03:38:48;24.90;58.70
64718;DHT22;51148;46.070;14.492;2022-07-17T03:41:13;25.00;58.70
64718;DHT22;51148;46.070;14.492;2022-07-17T03:43:39;24.90;58.70
64718;DHT22;51148;46.070;14.492;2022-07-17T03:46:04;24.90;58.70
64718;DHT22;51148;46.070;14.492;2022-07-17T03:48:30;24.90;58.80
64718;DHT22;51148;46.070;14.492;2022-07-17T03:50:55;24.90;58.70
64718;DHT22;51148;46.070;14.492;2022-07-17T03:53:21;24.90;58.70
64718;DHT22;51148;46.070;14.492;2022-07-17T03:55:46;24.90;58.70
64718;DHT22;51148;46.070;14.492;2022-07-17T03:58:12;24.90;58.70
64718;DHT22;51148;46.070;14.492;2022-07-17T04:00:38;24.90;58.70
64718;DHT22;51148;46.070;14.492;2022-07-17T04:03:03;24.90;58.70
64718;DHT22;51148;46.070;14.492;2022-07-17T04:05:28;24.90;58.70
64718;DHT22;51148;46.070;14.492;2022-07-17T04:07:54;24.90;58.70
64718;DHT22;51148;46.070;14.492;2022-07-17T04:10:19;24.90;58.70
64718;DHT22;51148;46.070;14.492;2022-07-17T04:12:45;24.90;58.80
64718;DHT22;51148;46.070;14.492;2022-07-17T04:15:10;24.90;58.80
64718;DHT22;51148;46.070;14.492;2022-07-17T04:17:36;24.90;58.80
64718;DHT22;51148;46.070;14.492;2022-07-17T04:20:02;24.90;58.90
64718;DHT22;51148;46.070;14.492;2022-07-17T04:22:28;24.90;58.80
64718;DHT22;51148;46.070;14.492;2022-07-17T04:24:54;24.80;58.90
64718;DHT22;51148;46.070;14.492;2022-07-17T04:27:19;24.80;59.50
64718;DHT22;51148;46.070;14.492;2022-07-17T04:29:45;24.80;58.90
64718;DHT22;51148;46.070;14.492;2022-07-17T04:32:10;24.80;58.80
64718;DHT22;51148;46.070;14.492;2022-07-17T04:34:36;24.80;58.80
64718;DHT22;51148;46.070;14.492;2022-07-17T04:37:02;24.80;58.90
64718;DHT22;51148;46.070;14.492;2022-07-17T04:39:27;24.80;58.80
64718;DHT22;51148;46.070;14.492;2022-07-17T04:41:53;24.80;58.80
64718;DHT22;51148;46.070;14.492;2022-07-17T04:44:19;24.80;58.80
64718;DHT22;51148;46.070;14.492;2022-07-17T04:46:44;24.80;58.70
64718;DHT22;51148;46.070;14.492;2022-07-17T04:49:10;24.70;58.50
64718;DHT22;51148;46.070;14.492;2022-07-17T04:51:36;24.70;57.80
64718;DHT22;51148;46.070;14.492;2022-07-17T04:54:02;24.70;57.90
64718;DHT22;51148;46.070;14.492;2022-07-17T04:56:27;24.70;57.90
64718;DHT22;51148;46.070;14.492;2022-07-17T04:58:53;24.60;57.60
64718;DHT22;51148;46.070;14.492;2022-07-17T05:01:18;24.60;57.60
64718;DHT22;51148;46.070;14.492;2022-07-17T05:03:44;24.60;57.20
64718;DHT22;51148;46.070;14.492;2022-07-17T05:06:09;24.60;57.20
64718;DHT22;51148;46.070;14.492;2022-07-17T05:08:35;24.60;57.00
64718;DHT22;51148;46.070;14.492;2022-07-17T05:11:00;24.60;56.70
64718;DHT22;51148;46.070;14.492;2022-07-17T05:13:26;24.60;56.60
64718;DHT22;51148;46.070;14.492;2022-07-17T05:15:51;24.60;56.40
64718;DHT22;51148;46.070;14.492;2022-07-17T05:18:18;24.60;56.30
64718;DHT22;51148;46.070;14.492;2022-07-17T05:20:43;24.60;56.30
64718;DHT22;51148;46.070;14.492;2022-07-17T05:23:09;24.60;55.90
64718;DHT22;51148;46.070;14.492;2022-07-17T05:25:34;24.50;55.70
64718;DHT22;51148;46.070;14.492;2022-07-17T05:28:00;24.50;55.40
64718;DHT22;51148;46.070;14.492;2022-07-17T05:30:27;24.50;55.20
64718;DHT22;51148;46.070;14.492;2022-07-17T05:32:52;24.50;55.00
64718;DHT22;51148;46.070;14.492;2022-07-17T05:35:18;24.50;54.90
64718;DHT22;51148;46.070;14.492;2022-07-17T05:37:43;24.60;54.60
64718;DHT22;51148;46.070;14.492;2022-07-17T05:40:08;24.60;54.60
64718;DHT22;51148;46.070;14.492;2022-07-17T05:42:34;24.60;54.50
64718;DHT22;51148;46.070;14.492;2022-07-17T05:44:59;24.60;53.90
64718;DHT22;51148;46.070;14.492;2022-07-17T05:47:25;24.60;54.00
64718;DHT22;51148;46.070;14.492;2022-07-17T05:49:50;24.70;53.80
64718;DHT22;51148;46.070;14.492;2022-07-17T05:52:16;24.70;53.20
64718;DHT22;51148;46.070;14.492;2022-07-17T05:54:42;24.70;53.20
64718;DHT22;51148;46.070;14.492;2022-07-17T05:57:07;24.70;52.70
64718;DHT22;51148;46.070;14.492;2022-07-17T05:59:33;24.70;52.60
64718;DHT22;51148;46.070;14.492;2022-07-17T06:01:59;24.70;52.80
64718;DHT22;51148;46.070;14.492;2022-07-17T06:04:25;24.70;51.80
64718;DHT22;51148;46.070;14.492;2022-07-17T06:06:50;24.80;51.80
64718;DHT22;51148;46.070;14.492;2022-07-17T06:09:16;24.80;51.40
64718;DHT22;51148;46.070;14.492;2022-07-17T06:11:41;24.80;52.10
64718;DHT22;51148;46.070;14.492;2022-07-17T06:14:07;24.80;51.40
64718;DHT22;51148;46.070;14.492;2022-07-17T06:16:32;24.90;50.10
64718;DHT22;51148;46.070;14.492;2022-07-17T06:18:58;24.90;50.70
64718;DHT22;51148;46.070;14.492;2022-07-17T06:21:23;24.90;50.90
64718;DHT22;51148;46.070;14.492;2022-07-17T06:23:49;25.00;48.20
64718;DHT22;51148;46.070;14.492;2022-07-17T06:26:14;25.00;48.30
64718;DHT22;51148;46.070;14.492;2022-07-17T06:28:40;25.00;49.00
64718;DHT22;51148;46.070;14.492;2022-07-17T06:31:06;25.00;49.20
64718;DHT22;51148;46.070;14.492;2022-07-17T06:33:31;25.00;50.10
64718;DHT22;51148;46.070;14.492;2022-07-17T06:35:57;25.00;50.10
64718;DHT22;51148;46.070;14.492;2022-07-17T06:38:22;25.00;51.10
64718;DHT22;51148;46.070;14.492;2022-07-17T06:40:48;25.00;50.90
64718;DHT22;51148;46.070;14.492;2022-07-17T06:43:13;25.00;51.40
64718;DHT22;51148;46.070;14.492;2022-07-17T06:45:39;25.00;51.60
64718;DHT22;51148;46.070;14.492;2022-07-17T06:48:04;25.00;51.70
64718;DHT22;51148;46.070;14.492;2022-07-17T06:50:30;25.00;51.70
64718;DHT22;51148;46.070;14.492;2022-07-17T06:52:55;25.00;51.90
64718;DHT22;51148;46.070;14.492;2022-07-17T06:55:21;25.00;52.00
64718;DHT22;51148;46.070;14.492;2022-07-17T06:57:46;25.00;52.30
64718;DHT22;51148;46.070;14.492;2022-07-17T07:00:12;25.10;51.60
64718;DHT22;51148;46.070;14.492;2022-07-17T07:02:37;25.10;51.70
64718;DHT22;51148;46.070;14.492;2022-07-17T07:05:03;25.10;52.20
64718;DHT22;51148;46.070;14.492;2022-07-17T07:07:30;25.10;51.80
64718;DHT22;51148;46.070;14.492;2022-07-17T07:09:55;25.10;51.90
64718;DHT22;51148;46.070;14.492;2022-07-17T07:12:21;25.10;51.60
64718;DHT22;51148;46.070;14.492;2022-07-17T07:14:46;25.10;51.50
64718;DHT22;51148;46.070;14.492;2022-07-17T07:17:12;25.10;51.80
64718;DHT22;51148;46.070;14.492;2022-07-17T07:19:37;25.10;51.60
64718;DHT22;51148;46.070;14.492;2022-07-17T07:22:03;25.10;51.30
64718;DHT22;51148;46.070;14.492;2022-07-17T07:24:28;25.10;51.80
64718;DHT22;51148;46.070;14.492;2022-07-17T07:26:54;25.10;51.60
64718;DHT22;51148;46.070;14.492;2022-07-17T07:29:19;25.10;51.40
64718;DHT22;51148;46.070;14.492;2022-07-17T07:31:45;25.10;51.40
64718;DHT22;51148;46.070;14.492;2022-07-17T07:34:12;25.10;52.10
64718;DHT22;51148;46.070;14.492;2022-07-17T07:36:38;25.10;51.50
64718;DHT22;51148;46.070;14.492;2022-07-17T07:39:03;25.10;51.60
64718;DHT22;51148;46.070;14.492;2022-07-17T07:41:29;25.10;51.20
64718;DHT22;51148;46.070;14.492;2022-07-17T07:43:54;25.10;51.40
64718;DHT22;51148;46.070;14.492;2022-07-17T07:46:20;25.10;50.90
64718;DHT22;51148;46.070;14.492;2022-07-17T07:48:45;25.10;51.00
64718;DHT22;51148;46.070;14.492;2022-07-17T07:51:11;25.10;48.80
64718;DHT22;51148;46.070;14.492;2022-07-17T07:53:37;25.10;50.30
64718;DHT22;51148;46.070;14.492;2022-07-17T07:56:03;25.10;50.90
64718;DHT22;51148;46.070;14.492;2022-07-17T07:58:29;25.10;49.70
64718;DHT22;51148;46.070;14.492;2022-07-17T08:00:54;25.10;50.20
64718;DHT22;51148;46.070;14.492;2022-07-17T08:03:20;25.10;50.40
64718;DHT22;51148;46.070;14.492;2022-07-17T08:05:45;25.10;50.50
64718;DHT22;51148;46.070;14.492;2022-07-17T08:08:11;25.10;50.80
64718;DHT22;51148;46.070;14.492;2022-07-17T08:10:36;25.10;50.30
64718;DHT22;51148;46.070;14.492;2022-07-17T08:13:02;25.10;50.00
64718;DHT22;51148;46.070;14.492;2022-07-17T08:15:28;25.10;50.00
64718;DHT22;51148;46.070;14.492;2022-07-17T08:17:53;25.10;50.10
64718;DHT22;51148;46.070;14.492;2022-07-17T08:20:20;25.10;50.60
64718;DHT22;51148;46.070;14.492;2022-07-17T08:22:46;25.10;49.50
64718;DHT22;51148;46.070;14.492;2022-07-17T08:25:13;25.20;49.80
64718;DHT22;51148;46.070;14.492;2022-07-17T08:27:39;25.10;49.70
64718;DHT22;51148;46.070;14.492;2022-07-17T08:30:05;25.10;50.30
64718;DHT22;51148;46.070;14.492;2022-07-17T08:32:31;25.10;49.90
64718;DHT22;51148;46.070;14.492;2022-07-17T08:34:57;25.10;49.80
64718;DHT22;51148;46.070;14.492;2022-07-17T08:37:23;25.10;49.20
64718;DHT22;51148;46.070;14.492;2022-07-17T08:39:49;25.10;50.10
64718;DHT22;51148;46.070;14.492;2022-07-17T08:42:15;25.20;48.70
64718;DHT22;51148;46.070;14.492;2022-07-17T08:44:42;25.20;49.20
64718;DHT22;51148;46.070;14.492;2022-07-17T08:47:07;25.20;48.60
64718;DHT22;51148;46.070;14.492;2022-07-17T08:49:33;25.20;50.00
64718;DHT22;51148;46.070;14.492;2022-07-17T08:52:03;25.20;49.50
64718;DHT22;51148;46.070;14.492;2022-07-17T08:54:29;25.20;49.50
64718;DHT22;51148;46.070;14.492;2022-07-17T08:56:54;25.20;49.60
64718;DHT22;51148;46.070;14.492;2022-07-17T08:59:20;25.20;49.60
64718;DHT22;51148;46.070;14.492;2022-07-17T09:01:45;25.20;49.50
64718;DHT22;51148;46.070;14.492;2022-07-17T09:04:11;25.20;49.70
64718;DHT22;51148;46.070;14.492;2022-07-17T09:06:36;25.20;49.60
64718;DHT22;51148;46.070;14.492;2022-07-17T09:11:28;25.30;49.60
64718;DHT22;51148;46.070;14.492;2022-07-17T09:13:55;25.30;49.70
64718;DHT22;51148;46.070;14.492;2022-07-17T09:16:21;25.30;49.50
64718;DHT22;51148;46.070;14.492;2022-07-17T09:18:47;25.30;49.60
64718;DHT22;51148;46.070;14.492;2022-07-17T09:21:32;25.30;49.30
64718;DHT22;51148;46.070;14.492;2022-07-17T09:23:58;25.30;49.80
64718;DHT22;51148;46.070;14.492;2022-07-17T09:26:24;25.30;49.60
64718;DHT22;51148;46.070;14.492;2022-07-17T09:28:50;25.30;49.20
64718;DHT22;51148;46.070;14.492;2022-07-17T09:31:28;25.30;49.20
64718;DHT22;51148;46.070;14.492;2022-07-17T09:33:54;25.30;49.40
64718;DHT22;51148;46.070;14.492;2022-07-17T09:36:20;25.30;49.40
64718;DHT22;51148;46.070;14.492;2022-07-17T09:38:46;25.30;49.50
64718;DHT22;51148;46.070;14.492;2022-07-17T09:46:17;25.30;49.70
64718;DHT22;51148;46.070;14.492;2022-07-17T09:48:43;25.30;49.30
64718;DHT22;51148;46.070;14.492;2022-07-17T09:51:15;25.30;49.10
64718;DHT22;51148;46.070;14.492;2022-07-17T09:53:41;25.30;49.50
64718;DHT22;51148;46.070;14.492;2022-07-17T09:56:09;25.30;49.40
64718;DHT22;51148;46.070;14.492;2022-07-17T09:58:35;25.30;49.00
64718;DHT22;51148;46.070;14.492;2022-07-17T10:01:04;25.30;49.60
64718;DHT22;51148;46.070;14.492;2022-07-17T10:03:29;25.30;48.60
64718;DHT22;51148;46.070;14.492;2022-07-17T10:05:55;25.40;48.40
64718;DHT22;51148;46.070;14.492;2022-07-17T10:08:21;25.40;49.20
64718;DHT22;51148;46.070;14.492;2022-07-17T10:10:46;25.40;48.70
64718;DHT22;51148;46.070;14.492;2022-07-17T10:13:13;25.30;48.90
64718;DHT22;51148;46.070;14.492;2022-07-17T10:15:41;25.30;48.90
64718;DHT22;51148;46.070;14.492;2022-07-17T10:18:07;25.30;48.80
64718;DHT22;51148;46.070;14.492;2022-07-17T10:20:33;25.30;48.70
64718;DHT22;51148;46.070;14.492;2022-07-17T10:22:58;25.30;48.70
64718;DHT22;51148;46.070;14.492;2022-07-17T10:25:24;25.30;49.00
64718;DHT22;51148;46.070;14.492;2022-07-17T10:27:51;25.30;48.70
64718;DHT22;51148;46.070;14.492;2022-07-17T10:30:24;25.30;48.10
64718;DHT22;51148;46.070;14.492;2022-07-17T10:32:50;25.30;48.10
64718;DHT22;51148;46.070;14.492;2022-07-17T10:35:16;25.30;48.50
64718;DHT22;51148;46.070;14.492;2022-07-17T10:37:42;25.30;48.10
64718;DHT22;51148;46.070;14.492;2022-07-17T10:40:14;25.20;48.10
64718;DHT22;51148;46.070;14.492;2022-07-17T10:45:10;25.30;48.00
64718;DHT22;51148;46.070;14.492;2022-07-17T10:47:57;25.20;48.10
64718;DHT22;51148;46.070;14.492;2022-07-17T10:50:24;25.20;48.20
64718;DHT22;51148;46.070;14.492;2022-07-17T10:55:25;25.20;48.00
64718;DHT22;51148;46.070;14.492;2022-07-17T10:57:50;25.20;45.30
64718;DHT22;51148;46.070;14.492;2022-07-17T11:00:16;25.30;47.30
64718;DHT22;51148;46.070;14.492;2022-07-17T11:02:43;25.20;47.80
64718;DHT22;51148;46.070;14.492;2022-07-17T11:05:08;25.20;48.00
64718;DHT22;51148;46.070;14.492;2022-07-17T11:07:34;25.20;47.80
64718;DHT22;51148;46.070;14.492;2022-07-17T11:10:00;25.20;47.90
64718;DHT22;51148;46.070;14.492;2022-07-17T11:12:32;25.20;47.30
64718;DHT22;51148;46.070;14.492;2022-07-17T11:15:01;25.20;47.70
64718;DHT22;51148;46.070;14.492;2022-07-17T11:17:27;25.20;45.60
64718;DHT22;51148;46.070;14.492;2022-07-17T11:19:53;25.20;47.50
64718;DHT22;51148;46.070;14.492;2022-07-17T11:22:21;25.30;44.80
64718;DHT22;51148;46.070;14.492;2022-07-17T11:24:47;25.30;45.90
64718;DHT22;51148;46.070;14.492;2022-07-17T11:27:23;25.30;45.50
64718;DHT22;51148;46.070;14.492;2022-07-17T11:29:49;25.20;46.80
64718;DHT22;51148;46.070;14.492;2022-07-17T11:32:15;25.20;46.40
64718;DHT22;51148;46.070;14.492;2022-07-17T11:34:41;25.20;46.10
64718;DHT22;51148;46.070;14.492;2022-07-17T11:37:07;25.20;46.60
64718;DHT22;51148;46.070;14.492;2022-07-17T11:39:37;25.20;46.50
64718;DHT22;51148;46.070;14.492;2022-07-17T11:42:03;25.20;46.00
64718;DHT22;51148;46.070;14.492;2022-07-17T11:44:28;25.20;47.00
64718;DHT22;51148;46.070;14.492;2022-07-17T11:46:54;25.20;47.00
64718;DHT22;51148;46.070;14.492;2022-07-17T11:49:39;25.20;46.30
64718;DHT22;51148;46.070;14.492;2022-07-17T11:52:12;25.20;46.40
64718;DHT22;51148;46.070;14.492;2022-07-17T11:54:52;25.30;47.00
64718;DHT22;51148;46.070;14.492;2022-07-17T11:57:18;25.20;47.60
64718;DHT22;51148;46.070;14.492;2022-07-17T11:59:44;25.20;46.90
64718;DHT22;51148;46.070;14.492;2022-07-17T12:02:13;25.20;47.10
64718;DHT22;51148;46.070;14.492;2022-07-17T12:07:14;25.30;46.80
64718;DHT22;51148;46.070;14.492;2022-07-17T12:09:40;25.20;47.00
64718;DHT22;51148;46.070;14.492;2022-07-17T12:12:05;25.20;46.50
64718;DHT22;51148;46.070;14.492;2022-07-17T12:14:31;25.30;46.50
64718;DHT22;51148;46.070;14.492;2022-07-17T12:16:57;25.30;46.40
64718;DHT22;51148;46.070;14.492;2022-07-17T12:19:23;25.30;46.80
64718;DHT22;51148;46.070;14.492;2022-07-17T12:21:50;25.20;46.80
64718;DHT22;51148;46.070;14.492;2022-07-17T12:24:24;25.20;46.50
64718;DHT22;51148;46.070;14.492;2022-07-17T12:26:51;25.20;46.30
64718;DHT22;51148;46.070;14.492;2022-07-17T12:29:17;25.20;46.40
64718;DHT22;51148;46.070;14.492;2022-07-17T12:31:42;25.20;46.80
64718;DHT22;51148;46.070;14.492;2022-07-17T12:34:08;25.30;47.40
64718;DHT22;51148;46.070;14.492;2022-07-17T12:36:34;25.30;46.80
64718;DHT22;51148;46.070;14.492;2022-07-17T12:38:59;25.20;47.10
64718;DHT22;51148;46.070;14.492;2022-07-17T12:41:25;25.30;47.50
64718;DHT22;51148;46.070;14.492;2022-07-17T12:43:50;25.20;46.90
64718;DHT22;51148;46.070;14.492;2022-07-17T12:46:16;25.20;47.40
64718;DHT22;51148;46.070;14.492;2022-07-17T12:48:42;25.20;47.30
64718;DHT22;51148;46.070;14.492;2022-07-17T12:51:09;25.20;47.30
64718;DHT22;51148;46.070;14.492;2022-07-17T12:53:34;25.30;47.50
64718;DHT22;51148;46.070;14.492;2022-07-17T12:56:01;25.20;47.30
64718;DHT22;51148;46.070;14.492;2022-07-17T12:58:28;25.30;47.40
64718;DHT22;51148;46.070;14.492;2022-07-17T13:00:53;25.20;47.80
64718;DHT22;51148;46.070;14.492;2022-07-17T13:03:19;25.20;46.90
64718;DHT22;51148;46.070;14.492;2022-07-17T13:05:44;25.20;47.10
64718;DHT22;51148;46.070;14.492;2022-07-17T13:08:10;25.20;47.30
64718;DHT22;51148;46.070;14.492;2022-07-17T13:10:35;25.20;47.30
64718;DHT22;51148;46.070;14.492;2022-07-17T13:13:01;25.20;47.20
64718;DHT22;51148;46.070;14.492;2022-07-17T13:15:27;25.20;47.30
64718;DHT22;51148;46.070;14.492;2022-07-17T13:17:52;25.20;47.90
64718;DHT22;51148;46.070;14.492;2022-07-17T13:20:18;25.20;47.10
64718;DHT22;51148;46.070;14.492;2022-07-17T13:22:44;25.20;47.30
64718;DHT22;51148;46.070;14.492;2022-07-17T13:25:09;25.20;47.50
64718;DHT22;51148;46.070;14.492;2022-07-17T13:27:34;25.20;47.40
64718;DHT22;51148;46.070;14.492;2022-07-17T13:30:00;25.10;47.10
64718;DHT22;51148;46.070;14.492;2022-07-17T13:32:25;25.20;47.90
64718;DHT22;51148;46.070;14.492;2022-07-17T13:34:51;25.10;48.10
64718;DHT22;51148;46.070;14.492;2022-07-17T13:37:16;25.10;47.40
64718;DHT22;51148;46.070;14.492;2022-07-17T13:39:42;25.10;47.30
64718;DHT22;51148;46.070;14.492;2022-07-17T13:42:08;25.10;47.20
64718;DHT22;51148;46.070;14.492;2022-07-17T13:44:33;25.10;47.40
64718;DHT22;51148;46.070;14.492;2022-07-17T13:46:59;25.10;47.50
64718;DHT22;51148;46.070;14.492;2022-07-17T13:49:24;25.10;47.50
64718;DHT22;51148;46.070;14.492;2022-07-17T13:51:50;25.20;46.80
64718;DHT22;51148;46.070;14.492;2022-07-17T13:54:15;25.10;47.30
64718;DHT22;51148;46.070;14.492;2022-07-17T13:56:41;25.20;46.90
64718;DHT22;51148;46.070;14.492;2022-07-17T13:59:06;25.20;47.50
64718;DHT22;51148;46.070;14.492;2022-07-17T14:01:32;25.20;46.80
64718;DHT22;51148;46.070;14.492;2022-07-17T14:04:00;25.20;47.80
64718;DHT22;51148;46.070;14.492;2022-07-17T14:06:25;25.20;47.70
64718;DHT22;51148;46.070;14.492;2022-07-17T14:08:51;25.20;47.90
64718;DHT22;51148;46.070;14.492;2022-07-17T14:11:16;25.20;48.00
64718;DHT22;51148;46.070;14.492;2022-07-17T14:13:42;25.20;48.10
64718;DHT22;51148;46.070;14.492;2022-07-17T14:16:07;25.20;48.40
64718;DHT22;51148;46.070;14.492;2022-07-17T14:18:33;25.20;47.80
64718;DHT22;51148;46.070;14.492;2022-07-17T14:20:59;25.20;47.90
64718;DHT22;51148;46.070;14.492;2022-07-17T14:23:24;25.20;48.10
64718;DHT22;51148;46.070;14.492;2022-07-17T14:25:50;25.20;48.10
64718;DHT22;51148;46.070;14.492;2022-07-17T14:28:15;25.20;47.70
64718;DHT22;51148;46.070;14.492;2022-07-17T14:30:41;25.30;47.90
64718;DHT22;51148;46.070;14.492;2022-07-17T14:33:07;25.30;47.90
64718;DHT22;51148;46.070;14.492;2022-07-17T14:35:32;25.30;47.60
64718;DHT22;51148;46.070;14.492;2022-07-17T14:37:58;25.30;47.90
64718;DHT22;51148;46.070;14.492;2022-07-17T14:40:24;25.30;47.50
64718;DHT22;51148;46.070;14.492;2022-07-17T14:42:49;25.30;47.60
64718;DHT22;51148;46.070;14.492;2022-07-17T14:45:15;25.30;47.70
64718;DHT22;51148;46.070;14.492;2022-07-17T14:47:40;25.30;47.20
64718;DHT22;51148;46.070;14.492;2022-07-17T14:50:06;25.30;47.60
64718;DHT22;51148;46.070;14.492;2022-07-17T14:52:32;25.40;47.50
64718;DHT22;51148;46.070;14.492;2022-07-17T14:54:58;25.40;48.10
64718;DHT22;51148;46.070;14.492;2022-07-17T14:57:24;25.40;49.20
64718;DHT22;51148;46.070;14.492;2022-07-17T14:59:49;25.50;48.40
64718;DHT22;51148;46.070;14.492;2022-07-17T15:02:15;25.50;48.50
64718;DHT22;51148;46.070;14.492;2022-07-17T15:04:40;25.50;48.40
64718;DHT22;51148;46.070;14.492;2022-07-17T15:07:06;25.60;48.40
64718;DHT22;51148;46.070;14.492;2022-07-17T15:09:31;25.60;48.70
64718;DHT22;51148;46.070;14.492;2022-07-17T15:11:57;25.60;48.40
64718;DHT22;51148;46.070;14.492;2022-07-17T15:14:22;25.60;48.30
64718;DHT22;51148;46.070;14.492;2022-07-17T15:16:48;25.60;48.40
64718;DHT22;51148;46.070;14.492;2022-07-17T15:19:13;25.60;48.40
64718;DHT22;51148;46.070;14.492;2022-07-17T15:21:39;25.70;48.30
64718;DHT22;51148;46.070;14.492;2022-07-17T15:24:04;25.70;48.20